Pagina principale
METAR-TAF:

METAR-TAF

Aeroporti :

Aeroporto Internazionale di Teheran-Mehrabad

Teheran, Iran

latitudine: 35-41N, longitudine: 051-21E, altezza: 1204 m

Osservazione

Il bollettino è stato emesso 11 minuti fa, alle 22:30 UTC
Vento 16 kt da ovest
Temperature 4°C
Umidità 52%
Pressione 1006 hPa
Visibilità 10 km o più
nessuna nube inferiore a 1500 m e nessun cumulonembo

METAR: OIII 182230Z 26016KT CAVOK 04/M05 Q1006 A2972

Ora: 02:11 (22:41 UTC)

Previsione

Il bollettino è stato emesso 5 ore e 11 minuti fa, alle 17:30 UTC
Previsione valida dal 18 alle 18 UTC al 19 alle 24 UTC
Vento 15 kt da ovest
Visibilità: 8000 m
Poco nuvoloso ad un'altezza di 3500 ft
Temporaneamente
dal 19 alle 12 UTC al 19 alle 18 UTC
Poco nuvoloso ad un'altezza di 3500 ft, Cumulonembo.
Nubi sparse ad un'altezza di 4000 ft
Nubi sparse ad un'altezza di 10000 ft

TAF: OIII 181730Z 1818/1924 28015KT 8000 FEW035 TEMPO 1912/1918 29020G30K FEW035CB SCT040 SCT100

Osservazioni e previsioni meteorologiche di più di 4000 aeroporti (messaggi METAR e TAF).

Le stazioni disponibili sono rappresentate dai dischi gialli e rossi sulla carta.

Puntare il mouse per vedere il nome della stazione.

Clicca sopra per visualizzare le osservazioni e previsioni meteorologiche.

Per cambiare la mappa : fare clic sui pulsanti verdi con una croce nera per ingrandire, il pulsante verde con un trattino per diminuire, o sulla freccia verde per le mappe adiacenti.


METAR-TAF: